createdAt,value
2023-04-05T00:01:02.031Z,9.63
2023-04-05T00:03:36.469Z,8.80
2023-04-05T00:06:10.705Z,8.52
2023-04-05T00:08:42.838Z,8.50
2023-04-05T00:11:14.023Z,8.88
2023-04-05T00:13:45.551Z,8.95
2023-04-05T00:16:21.704Z,8.98
2023-04-05T00:18:55.880Z,8.15
2023-04-05T00:21:32.775Z,8.18
2023-04-05T00:24:05.119Z,8.02
2023-04-05T00:26:36.465Z,6.85
2023-04-05T00:29:07.570Z,7.97
2023-04-05T00:31:38.722Z,7.75
2023-04-05T00:34:11.817Z,7.13
2023-04-05T00:36:43.218Z,7.85
2023-04-05T00:39:15.576Z,8.02
2023-04-05T00:41:48.706Z,6.93
2023-04-05T00:44:20.853Z,7.73
2023-04-05T00:46:52.619Z,7.47
2023-04-05T00:49:23.918Z,7.15
2023-04-05T00:51:55.464Z,6.75
2023-04-05T00:54:35.136Z,7.18
2023-04-05T00:57:08.540Z,6.72
2023-04-05T00:59:41.197Z,6.88
2023-04-05T01:02:26.398Z,6.72
2023-04-05T01:05:06.715Z,6.65
2023-04-05T01:07:53.431Z,6.53
2023-04-05T01:10:30.086Z,6.57
2023-04-05T01:13:01.594Z,5.82
2023-04-05T01:15:34.807Z,5.87
2023-04-05T01:18:06.860Z,6.15
2023-04-05T01:20:55.462Z,6.55
2023-04-05T01:23:39.680Z,6.60
2023-04-05T01:26:29.135Z,6.53
2023-04-05T01:29:43.738Z,6.45
2023-04-05T01:32:37.094Z,6.43
2023-04-05T01:35:40.220Z,5.88
2023-04-05T01:38:19.081Z,6.78
2023-04-05T01:40:56.938Z,6.05
2023-04-05T01:43:31.204Z,5.78
2023-04-05T01:46:04.801Z,6.05
2023-04-05T01:48:36.378Z,6.20
2023-04-05T01:51:08.850Z,5.70
2023-04-05T01:56:24.344Z,6.03
2023-04-05T01:58:55.604Z,5.47
2023-04-05T02:01:27.816Z,6.15
2023-04-05T02:04:22.224Z,6.35
2023-04-05T02:06:53.440Z,6.50
2023-04-05T02:09:24.648Z,6.30
2023-04-05T02:12:15.861Z,5.28
2023-04-05T02:14:48.477Z,5.00
2023-04-05T02:17:19.990Z,4.97
2023-04-05T02:19:54.569Z,5.43
2023-04-05T02:22:30.367Z,5.03
2023-04-05T02:25:05.919Z,5.22
2023-04-05T02:27:57.329Z,5.35
2023-04-05T02:30:30.551Z,5.47
2023-04-05T02:33:03.907Z,5.25
2023-04-05T02:35:35.112Z,5.47
2023-04-05T02:38:07.270Z,5.22
2023-04-05T02:40:39.735Z,5.82
2023-04-05T02:43:11.832Z,5.78
2023-04-05T02:45:54.103Z,5.40
2023-04-05T02:48:46.823Z,5.70
2023-04-05T02:51:23.046Z,5.90
2023-04-05T02:53:54.986Z,5.60
2023-04-05T02:56:26.717Z,5.97
2023-04-05T02:59:19.658Z,7.43
2023-04-05T03:02:01.184Z,7.28
2023-04-05T03:04:38.438Z,7.50
2023-04-05T03:07:09.968Z,9.63
2023-04-05T03:12:36.100Z,7.38
2023-04-05T03:15:09.836Z,7.80
2023-04-05T03:17:53.459Z,10.95
2023-04-05T03:20:24.930Z,9.15
2023-04-05T03:23:03.920Z,8.25
2023-04-05T03:25:45.547Z,10.65
2023-04-05T03:28:36.078Z,20.65
2023-04-05T03:31:10.725Z,11.52
2023-04-05T03:33:42.625Z,8.05
2023-04-05T03:36:18.065Z,8.73
2023-04-05T03:39:11.989Z,8.23
2023-04-05T03:42:03.533Z,9.50
2023-04-05T03:44:37.579Z,9.27
2023-04-05T03:47:28.461Z,8.57
2023-04-05T03:52:41.171Z,9.13
2023-04-05T03:55:12.947Z,8.82
2023-04-05T03:57:44.788Z,8.27
2023-04-05T04:03:20.638Z,20.83
2023-04-05T04:05:57.980Z,10.85
2023-04-05T04:08:35.769Z,9.48
2023-04-05T04:11:33.887Z,7.43
2023-04-05T04:14:12.351Z,8.18
2023-04-05T04:17:36.595Z,9.23
2023-04-05T04:20:57.499Z,7.65
2023-04-05T04:23:52.176Z,12.25
2023-04-05T04:26:47.039Z,6.38
2023-04-05T04:30:12.286Z,8.48
2023-04-05T04:33:01.837Z,7.53
2023-04-05T04:35:45.870Z,14.20
2023-04-05T04:38:38.533Z,12.50
2023-04-05T04:41:37.779Z,9.52
2023-04-05T04:44:38.832Z,8.70
2023-04-05T04:47:56.041Z,8.38
2023-04-05T04:50:53.401Z,9.48
2023-04-05T04:53:25.214Z,10.40
2023-04-05T04:59:23.392Z,11.10
2023-04-05T05:01:54.980Z,9.30
2023-04-05T05:04:26.589Z,8.02
2023-04-05T05:06:58.904Z,36.65
2023-04-05T05:09:53.887Z,14.02
2023-04-05T05:12:28.606Z,12.32
2023-04-05T05:15:00.482Z,8.70
2023-04-05T05:17:36.673Z,7.17
2023-04-05T05:20:51.438Z,8.10
2023-04-05T05:23:25.847Z,8.85
2023-04-05T05:26:03.629Z,9.18
2023-04-05T05:28:56.474Z,7.70
2023-04-05T05:31:34.435Z,8.13
2023-04-05T05:36:59.027Z,9.73
2023-04-05T05:39:30.985Z,8.23
2023-04-05T05:42:22.819Z,7.93
2023-04-05T05:44:54.015Z,7.32
2023-04-05T05:47:45.306Z,6.55
2023-04-05T05:50:18.688Z,9.68
2023-04-05T05:52:50.206Z,10.40
2023-04-05T05:55:21.509Z,7.65
2023-04-05T05:57:55.072Z,8.40
2023-04-05T06:00:47.883Z,8.98
2023-04-05T06:03:20.765Z,8.15
2023-04-05T06:08:49.026Z,8.93
2023-04-05T06:11:27.330Z,6.80
2023-04-05T06:14:00.860Z,13.13
2023-04-05T06:16:36.901Z,8.40
2023-04-05T06:19:08.624Z,6.65
2023-04-05T06:21:43.815Z,7.22
2023-04-05T06:24:15.218Z,8.38
2023-04-05T06:26:46.977Z,11.18
2023-04-05T06:29:18.217Z,7.40
2023-04-05T06:31:50.234Z,7.20
2023-04-05T06:34:25.648Z,10.13
2023-04-05T06:37:16.633Z,8.48
2023-04-05T06:39:47.843Z,7.90
2023-04-05T06:42:20.423Z,20.92
2023-04-05T06:44:57.927Z,9.23
2023-04-05T06:47:29.428Z,9.40
2023-04-05T06:50:01.584Z,33.63
2023-04-05T06:52:35.739Z,10.25
2023-04-05T06:55:07.619Z,10.32
2023-04-05T06:57:40.318Z,13.30
2023-04-05T07:00:14.900Z,10.95
2023-04-05T07:03:05.922Z,9.43
2023-04-05T07:05:39.582Z,9.75
2023-04-05T07:08:12.843Z,11.68
2023-04-05T07:10:44.335Z,7.78
2023-04-05T07:13:19.116Z,9.68
2023-04-05T07:15:50.372Z,9.20
2023-04-05T07:18:22.414Z,9.02
2023-04-05T07:21:00.366Z,10.98
2023-04-05T07:23:55.576Z,8.18
2023-04-05T07:26:30.512Z,8.35
2023-04-05T07:29:22.588Z,8.07
2023-04-05T07:32:13.900Z,10.80
2023-04-05T07:34:45.505Z,19.25
2023-04-05T07:37:17.936Z,17.75
2023-04-05T07:40:11.864Z,10.02
2023-04-05T07:42:49.327Z,9.30
2023-04-05T07:45:22.461Z,9.85
2023-04-05T07:54:56.647Z,8.57
2023-04-05T07:57:58.873Z,8.70
2023-04-05T08:00:30.443Z,8.65
2023-04-05T08:03:02.624Z,8.60
2023-04-05T08:05:34.091Z,12.52
2023-04-05T08:08:06.610Z,8.23
2023-04-05T08:10:43.427Z,9.38
2023-04-05T08:13:40.464Z,8.55
2023-04-05T08:16:15.853Z,9.93
2023-04-05T08:18:49.756Z,8.77
2023-04-05T08:21:21.302Z,8.85
2023-04-05T08:26:40.085Z,13.45
2023-04-05T08:29:11.427Z,15.10
2023-04-05T08:32:04.895Z,9.32
2023-04-05T08:34:36.748Z,8.70
2023-04-05T08:37:28.726Z,9.05
2023-04-05T08:40:00.388Z,8.90
2023-04-05T08:45:54.422Z,8.48
2023-04-05T08:48:46.812Z,9.32
2023-04-05T08:51:35.840Z,8.50
2023-04-05T08:54:09.195Z,9.27
2023-04-05T08:56:44.287Z,8.88
2023-04-05T08:59:19.516Z,9.40
2023-04-05T09:01:54.195Z,9.27
2023-04-05T09:04:47.479Z,11.73
2023-04-05T09:07:19.614Z,9.23
2023-04-05T09:09:55.054Z,9.68
2023-04-05T09:12:28.469Z,8.85
2023-04-05T09:15:04.200Z,8.88
2023-04-05T09:17:36.503Z,8.70
2023-04-05T09:20:09.653Z,8.82
2023-04-05T09:22:49.295Z,8.50
2023-04-05T09:25:42.220Z,9.13
2023-04-05T09:28:16.268Z,9.55
2023-04-05T09:30:50.560Z,10.07
2023-04-05T09:33:27.372Z,9.55
2023-04-05T09:35:58.839Z,8.02
2023-04-05T09:38:51.219Z,23.42
2023-04-05T09:41:23.531Z,12.15
2023-04-05T09:43:57.926Z,9.57
2023-04-05T09:46:43.313Z,11.35
2023-04-05T09:49:15.940Z,31.63
2023-04-05T09:51:50.085Z,15.57
2023-04-05T09:54:21.502Z,17.10
2023-04-05T09:56:59.015Z,16.23
2023-04-05T10:02:26.700Z,14.05
2023-04-05T10:04:57.960Z,14.07
2023-04-05T10:07:31.442Z,11.98
2023-04-05T10:10:04.212Z,9.90
2023-04-05T10:12:37.189Z,9.30
2023-04-05T10:15:09.798Z,10.82
2023-04-05T10:18:00.047Z,9.63
2023-04-05T10:20:37.771Z,8.95
2023-04-05T10:23:19.918Z,9.98
2023-04-05T10:25:54.810Z,8.05
2023-04-05T10:28:37.061Z,9.13
2023-04-05T10:31:38.059Z,7.95
2023-04-05T10:34:12.541Z,10.27
2023-04-05T10:37:09.895Z,15.38
2023-04-05T10:39:49.406Z,9.88
2023-04-05T10:43:08.314Z,8.60
2023-04-05T10:45:43.865Z,12.20
2023-04-05T10:48:21.327Z,9.35
2023-04-05T10:50:53.944Z,11.35
2023-04-05T10:53:31.933Z,10.65
2023-04-05T10:56:05.923Z,11.95
2023-04-05T10:58:39.081Z,9.27
2023-04-05T11:01:34.186Z,10.48
2023-04-05T11:04:28.726Z,11.50
2023-04-05T11:07:41.441Z,9.38
2023-04-05T11:10:20.441Z,9.13
2023-04-05T11:12:54.978Z,8.38
2023-04-05T11:15:33.913Z,8.70
2023-04-05T11:18:05.398Z,8.75
2023-04-05T11:21:36.893Z,9.07
2023-04-05T11:24:54.320Z,11.40
2023-04-05T11:28:03.328Z,8.35
2023-04-05T11:30:50.826Z,8.00
2023-04-05T11:33:54.794Z,8.23
2023-04-05T11:36:43.624Z,22.48
2023-04-05T11:42:15.049Z,8.45
2023-04-05T11:44:49.056Z,14.85
2023-04-05T11:47:23.812Z,19.33
2023-04-05T11:49:55.453Z,7.90
2023-04-05T11:52:27.132Z,22.30
2023-04-05T11:55:29.755Z,13.10
2023-04-05T11:58:23.718Z,16.27
2023-04-05T12:01:03.741Z,12.95
2023-04-05T12:03:36.191Z,8.80
2023-04-05T12:06:09.576Z,9.95
2023-04-05T12:09:00.547Z,9.13
2023-04-05T12:11:40.076Z,8.52
2023-04-05T12:14:27.578Z,9.43
2023-04-05T12:16:59.814Z,8.77
2023-04-05T12:19:53.271Z,13.85
2023-04-05T12:22:24.898Z,9.43
2023-04-05T12:24:58.117Z,8.40
2023-04-05T12:27:30.088Z,13.18
2023-04-05T12:33:12.360Z,11.82
2023-04-05T12:41:07.829Z,10.52
2023-04-05T12:44:09.665Z,9.02
2023-04-05T12:46:45.602Z,10.40
2023-04-05T12:52:34.118Z,9.50
2023-04-05T12:55:05.593Z,9.40
2023-04-05T12:57:37.641Z,8.82
2023-04-05T13:06:11.240Z,9.65
2023-04-05T13:14:39.760Z,11.05
2023-04-05T13:17:14.557Z,9.60
2023-04-05T13:19:46.394Z,18.08
2023-04-05T13:23:04.994Z,11.10
2023-04-05T13:25:36.353Z,11.45
2023-04-05T13:28:50.327Z,10.35
2023-04-05T13:31:27.320Z,10.00
2023-04-05T13:33:58.857Z,10.73
2023-04-05T13:36:51.471Z,11.40
2023-04-05T13:39:42.523Z,11.60
2023-04-05T13:42:13.971Z,11.10
2023-04-05T13:45:27.972Z,11.25
2023-04-05T13:48:02.112Z,11.20
2023-04-05T13:50:55.138Z,10.75
2023-04-05T13:53:36.316Z,11.48
2023-04-05T13:56:29.064Z,11.75
2023-04-05T13:59:20.580Z,11.35
2023-04-05T14:01:52.147Z,11.02
2023-04-05T14:04:43.531Z,13.00
2023-04-05T14:07:57.134Z,12.25
2023-04-05T14:10:34.624Z,11.95
2023-04-05T14:13:07.174Z,11.98
2023-04-05T14:15:59.444Z,13.45
2023-04-05T14:18:34.977Z,12.65
2023-04-05T14:24:21.876Z,17.35
2023-04-05T14:27:32.775Z,22.88
2023-04-05T14:30:14.318Z,18.00
2023-04-05T14:32:47.881Z,13.43
2023-04-05T14:35:26.941Z,14.35
2023-04-05T14:38:02.594Z,13.05
2023-04-05T14:40:33.855Z,15.82
2023-04-05T14:43:05.361Z,16.55
2023-04-05T14:45:59.033Z,14.93
2023-04-05T14:48:33.505Z,13.57
2023-04-05T14:51:25.652Z,14.68
2023-04-05T14:53:59.558Z,14.52
2023-04-05T14:56:32.513Z,14.20
2023-04-05T14:59:08.810Z,13.65
2023-04-05T15:01:49.316Z,14.85
2023-04-05T15:04:22.003Z,13.27
2023-04-05T15:07:02.662Z,14.82
2023-04-05T15:09:34.726Z,15.02
2023-04-05T15:12:08.349Z,15.77
2023-04-05T15:15:03.012Z,13.85
2023-04-05T15:17:35.744Z,15.20
2023-04-05T15:20:08.366Z,15.38
2023-04-05T15:22:42.478Z,14.45
2023-04-05T15:25:15.392Z,11.75
2023-04-05T15:27:46.973Z,15.05
2023-04-05T15:30:21.479Z,23.33
2023-04-05T15:32:57.482Z,16.08
2023-04-05T15:35:31.207Z,17.40
2023-04-05T15:38:03.641Z,15.63
2023-04-05T15:40:37.069Z,16.52
2023-04-05T15:43:08.727Z,16.17
2023-04-05T15:45:42.581Z,15.68
2023-04-05T15:48:34.258Z,17.15
2023-04-05T15:54:12.637Z,16.50
2023-04-05T15:56:45.521Z,16.25
2023-04-05T15:59:17.679Z,16.20
2023-04-05T16:04:33.365Z,16.08
2023-04-05T16:07:08.839Z,16.85
2023-04-05T16:09:40.848Z,16.00
2023-04-05T16:12:14.264Z,17.20
2023-04-05T16:14:47.161Z,15.43
2023-04-05T16:17:19.572Z,13.77
2023-04-05T16:19:54.649Z,15.68
2023-04-05T16:22:29.036Z,15.90
2023-04-05T16:25:00.636Z,16.88
2023-04-05T16:27:35.595Z,17.10
2023-04-05T16:30:07.449Z,16.55
2023-04-05T16:32:38.943Z,16.42
2023-04-05T16:35:11.151Z,16.33
2023-04-05T16:37:44.744Z,16.63
2023-04-05T16:40:16.493Z,15.98
2023-04-05T16:42:48.210Z,14.25
2023-04-05T16:45:27.872Z,15.70
2023-04-05T16:48:01.296Z,14.57
2023-04-05T16:50:35.439Z,15.18
2023-04-05T16:53:06.811Z,15.95
2023-04-05T16:55:38.061Z,16.83
2023-04-05T16:58:09.480Z,15.65
2023-04-05T17:00:40.713Z,16.00
2023-04-05T17:03:12.091Z,15.85
2023-04-05T17:05:43.601Z,15.55
2023-04-05T17:08:15.176Z,13.10
2023-04-05T17:10:46.380Z,13.10
2023-04-05T17:13:18.232Z,17.15
2023-04-05T17:15:50.665Z,16.25
2023-04-05T17:18:22.698Z,15.73
2023-04-05T17:20:54.212Z,15.82
2023-04-05T17:23:30.242Z,17.23
2023-04-05T17:26:02.507Z,14.13
2023-04-05T17:28:33.972Z,17.80
2023-04-05T17:31:09.606Z,16.48
2023-04-05T17:33:42.203Z,21.73
2023-04-05T17:36:14.327Z,15.70
2023-04-05T17:38:46.137Z,16.63
2023-04-05T17:41:17.670Z,18.00
2023-04-05T17:43:49.682Z,16.58
2023-04-05T17:46:34.043Z,14.15
2023-04-05T17:49:12.043Z,15.63
2023-04-05T17:51:43.471Z,13.63
2023-04-05T17:54:17.058Z,16.00
2023-04-05T17:56:48.307Z,15.90
2023-04-05T17:59:19.472Z,15.30
2023-04-05T18:01:55.069Z,16.45
2023-04-05T18:04:29.399Z,15.68
2023-04-05T18:07:00.704Z,15.90
2023-04-05T18:09:36.023Z,16.83
2023-04-05T18:12:07.893Z,15.13
2023-04-05T18:14:41.821Z,14.85
2023-04-05T18:17:13.417Z,11.93
2023-04-05T18:19:44.539Z,15.73
2023-04-05T18:22:16.124Z,15.43
2023-04-05T18:24:47.661Z,13.57
2023-04-05T18:27:19.326Z,16.15
2023-04-05T18:29:50.606Z,15.80
2023-04-05T18:32:22.245Z,16.17
2023-04-05T18:34:53.986Z,14.55
2023-04-05T18:37:25.461Z,15.93
2023-04-05T18:39:56.544Z,14.95
2023-04-05T18:42:28.002Z,15.15
2023-04-05T18:44:59.307Z,14.77
2023-04-05T18:47:30.966Z,13.52
2023-04-05T18:50:03.112Z,15.48
2023-04-05T18:52:35.931Z,15.43
2023-04-05T18:55:09.697Z,14.57
2023-04-05T18:57:41.913Z,15.13
2023-04-05T19:00:13.709Z,14.82
2023-04-05T19:02:45.335Z,14.10
2023-04-05T19:05:17.034Z,14.80
2023-04-05T19:07:48.267Z,14.23
2023-04-05T19:10:19.722Z,11.57
2023-04-05T19:12:57.107Z,14.60
2023-04-05T19:15:29.197Z,13.98
2023-04-05T19:18:02.508Z,15.02
2023-04-05T19:20:35.253Z,15.27
2023-04-05T19:23:06.759Z,14.00
2023-04-05T19:25:38.824Z,16.13
2023-04-05T19:28:10.215Z,14.23
2023-04-05T19:30:45.145Z,15.73
2023-04-05T19:33:17.282Z,14.20
2023-04-05T19:35:49.820Z,14.57
2023-04-05T19:38:24.188Z,14.45
2023-04-05T19:40:56.096Z,15.63
2023-04-05T19:43:28.449Z,15.95
2023-04-05T19:46:02.447Z,15.77
2023-04-05T19:48:38.519Z,15.25
2023-04-05T19:51:11.950Z,16.23
2023-04-05T19:53:46.346Z,14.80
2023-04-05T19:56:22.522Z,15.32
2023-04-05T19:59:01.457Z,14.80
2023-04-05T20:01:35.919Z,14.23
2023-04-05T20:04:16.421Z,14.15
2023-04-05T20:06:54.515Z,14.90
2023-04-05T20:09:28.077Z,14.43
2023-04-05T20:12:05.052Z,14.85
2023-04-05T20:14:53.761Z,13.43
2023-04-05T20:17:29.247Z,13.82
2023-04-05T20:20:02.710Z,15.15
2023-04-05T20:22:35.360Z,15.23
2023-04-05T20:25:40.623Z,14.43
2023-04-05T20:28:37.976Z,14.18
2023-04-05T20:31:10.539Z,15.38
2023-04-05T20:34:14.558Z,14.85
2023-04-05T20:36:54.564Z,12.90
2023-04-05T20:39:26.982Z,13.50
2023-04-05T20:41:58.992Z,15.07
2023-04-05T20:44:30.313Z,15.13
2023-04-05T20:47:03.040Z,15.43
2023-04-05T20:49:34.725Z,14.80
2023-04-05T20:52:09.252Z,14.52
2023-04-05T20:54:40.607Z,14.63
2023-04-05T20:57:11.858Z,14.40
2023-04-05T20:59:43.057Z,17.17
2023-04-05T21:02:14.403Z,15.10
2023-04-05T21:04:47.299Z,16.23
2023-04-05T21:07:19.157Z,15.68
2023-04-05T21:09:50.294Z,16.33
2023-04-05T21:12:21.576Z,15.38
2023-04-05T21:14:52.808Z,16.20
2023-04-05T21:17:24.209Z,16.55
2023-04-05T21:19:55.597Z,15.20
2023-04-05T21:22:26.988Z,14.75
2023-04-05T21:24:58.190Z,14.68
2023-04-05T21:27:29.480Z,14.70
2023-04-05T21:30:00.993Z,16.70
2023-04-05T21:32:35.251Z,16.52
2023-04-05T21:35:06.812Z,15.32
2023-04-05T21:37:38.371Z,15.70
2023-04-05T21:40:10.741Z,15.07
2023-04-05T21:42:42.633Z,14.88
2023-04-05T21:45:14.251Z,14.23
2023-04-05T21:47:45.680Z,15.50
2023-04-05T21:50:17.414Z,14.75
2023-04-05T21:52:48.825Z,14.27
2023-04-05T21:55:20.146Z,15.70
2023-04-05T21:57:51.326Z,14.77
2023-04-05T22:00:23.165Z,15.35
2023-04-05T22:02:54.778Z,12.63
2023-04-05T22:05:37.413Z,14.82
2023-04-05T22:08:10.563Z,14.73
2023-04-05T22:10:42.506Z,15.45
2023-04-05T22:13:13.920Z,16.63
2023-04-05T22:15:45.880Z,16.58
2023-04-05T22:18:17.425Z,13.85
2023-04-05T22:20:48.908Z,16.15
2023-04-05T22:23:20.155Z,15.23
2023-04-05T22:25:51.692Z,15.43
2023-04-05T22:28:23.817Z,15.38
2023-04-05T22:30:56.231Z,15.77
2023-04-05T22:33:28.061Z,15.63
2023-04-05T22:36:04.870Z,15.85
2023-04-05T22:38:36.156Z,15.48
2023-04-05T22:41:07.559Z,13.80
2023-04-05T22:43:38.936Z,15.88
2023-04-05T22:46:10.660Z,16.10
2023-04-05T22:48:42.415Z,15.65
2023-04-05T22:51:13.696Z,15.90
2023-04-05T22:53:45.031Z,16.95
2023-04-05T22:56:16.761Z,15.85
2023-04-05T22:58:48.279Z,16.42
2023-04-05T23:01:20.234Z,15.00
2023-04-05T23:03:51.795Z,16.00
2023-04-05T23:06:23.369Z,16.77
2023-04-05T23:08:57.839Z,14.23
2023-04-05T23:11:29.180Z,16.67
2023-04-05T23:14:00.799Z,15.98
2023-04-05T23:16:32.468Z,17.85
2023-04-05T23:19:03.656Z,17.15
2023-04-05T23:21:38.411Z,17.08
2023-04-05T23:26:41.130Z,16.92
2023-04-05T23:29:12.513Z,17.45
2023-04-05T23:31:43.804Z,18.17
2023-04-05T23:34:18.180Z,16.98
2023-04-05T23:36:49.597Z,18.00
2023-04-05T23:39:21.730Z,20.35
2023-04-05T23:41:52.951Z,18.42
2023-04-05T23:44:25.688Z,16.98
2023-04-05T23:46:57.454Z,18.52
2023-04-05T23:49:29.692Z,18.45
2023-04-05T23:52:01.073Z,17.02
2023-04-05T23:54:32.570Z,18.05
2023-04-05T23:57:03.985Z,18.35
2023-04-05T23:59:36.790Z,21.13
